Historyczne dane pomiarowe

Dodano dane terminowe – wersja testowa.

Dane z okresu 1951-2019

Wersja bazy: 1.34 [2019-03-16, lista zmian], aktualizacja planowana na 2019-04-15

Dane meteo z obszaru Polski uzyskane na podstawie danych udostępnionych przez Instytut Meteorologii i Gospodarki Wodnej – Państwowy Instytut Badawczy.

 

Wybierz Datę:    

       

TemperaturaWilgotnośćWiatrCiśnienieOpadyŚniegCzas trwania zjawisk
 Stacja t tx tn tng RH VA  wxwx mslp ppp RRR   cm mm wxwxwxwxwxwxwx
1991-03-15 6.9 15.8 -2.0 -5.8 75.8- 2.7 1.0---- 1.5------------
1991-03-14 6.2 15.8 -2.9 -5.8 75.8- 2.7 1.7---- 0.0------------
1991-03-13 6.5 15.0 -2.0 -4.7 82.5- 5.3 0.0---- 0.0------------
1991-03-12 7.4 15.8 -1.5 -3.7 80.3- 5.3 0.7---- 0.0------------
1991-03-11 7.7 12.1 -0.5 -2.8 86.0- 7.7 0.0---- 1.6------------
1991-03-10 5.1 10.2 -1.2 -4.2 85.5- 8.0 0.7---- 0.0------------
1991-03-09 6.5 13.9 -1.0 -4.2 82.3- 7.7 0.0---- 0.0------------
1991-03-08 5.4 12.9 -0.8 -3.1 82.8- 0.0 1.7---- 0.0------------
1991-03-07 4.1 9.2 -1.5 -3.5 85.3- 1.3 3.3---- 0.0------------
1991-03-06 2.5 4.2 -0.5 -2.4 86.0- 8.0 5.7---- 0.0------------
1991-03-05 1.9 8.0 -3.6 -7.4 85.5- 2.0 1.0---- 0.0------------
1991-03-04 3.0 10.5 -3.1 -7.4 80.0- 0.7 1.0---- 0.0------------
1991-03-03 2.3 9.3 -4.4 -7.9 80.0- 4.0 0.7---- 0.0------------
1991-03-02 0.5 3.6 -2.9 -4.7 82.0- 1.3 2.3---- 0.0------------
1991-03-01 0.1 4.0 -3.7 -5.5 78.3- 5.0 3.7---- 0.0------------
1991-02-28 -0.7 0.6 -3.9 -7.9 76.5- 8.0 3.0---- 0.0------------
1991-02-27 -0.7 1.3 -3.1 -5.8 76.5- 7.7 0.0---- 0.0------------
1991-02-26 3.3 8.2 -0.6 -3.1 83.8- 6.7 1.7---- 0.0------------
1991-02-25 4.3 12.3 -3.4 -6.8 82.5- 3.0 1.7---- 0.0------------
1991-02-24 5.5 10.0 -0.5 -5.8 77.3- 4.3 2.3---- 0.0------------
1991-02-23 2.9 6.2 -2.4 -5.8 76.0- 6.0 1.7---- 0.4------------
1991-02-22 0.5 7.5 -5.3 -6.8 83.5- 1.3 0.7---- 0.0------------
1991-02-21 -0.1 8.5 -5.7 -9.0 82.8- 0.0 0.0---- 0.0-- 4---------
1991-02-20 2.3 6.2 -3.5-13.9 70.0- 6.7 1.7---- 0.0-- 8---------
1991-02-19 -5.3 4.0-14.3-18.4 76.3- 3.7 0.0---- 0.0-- 12---------
1991-02-18 -1.5 2.3 -5.9-11.0 79.0- 5.0 3.3---- 0.0-- 18---------
1991-02-17 -2.3 -0.9 -4.9 -6.3 77.0- 7.3 6.3---- 0.0-- 19---------
1991-02-16 -3.4 -0.9 -6.9 -9.4 84.5- 8.0 0.7---- 0.4-- 19---------
1991-02-15 -4.2 -0.9 -8.4-10.5 74.8- 4.7 4.0---- 0.1-- 20---------
1991-02-14 -6.1 -4.9 -8.3-13.9 83.5- 4.7 4.3---- 0.2-- 20---------
1991-02-13 -5.1 -3.3 -8.1-13.9 79.3- 7.3 3.3---- 0.4-- 15---------
1991-02-12-10.8 -0.4-21.3-26.4 77.8- 3.0 0.7---- 0.1-- 17---------
1991-02-11 -6.8 -1.9-15.8-13.9 83.3- 5.7 3.0---- 0.0-- 17---------
1991-02-10 -5.4 -0.9-13.3-17.9 84.0- 7.3 0.7---- 4.9-- 7---------
1991-02-09 -4.2 -0.5-10.4-17.9 91.5- 8.0 0.0---- 0.6-- 6---------
1991-02-08 -7.8 -3.4-13.0-15.9 89.3- 8.0 4.7---- 1.6-- 2---------
1991-02-07-10.0 -7.9-13.8-15.9 79.5- 7.7 3.3---- 0.1-- 2---------
1991-02-06-12.3 -8.9-18.3-21.4 83.0- 7.7 2.0---- 0.0-- 2---------
1991-02-05-10.4 -6.1-14.8-16.9 83.8- 8.0 1.7---- 0.9-- 1---------
1991-02-04 -7.6 -3.4-14.8-17.4 82.3- 6.0 0.7---- 1.1------------
1991-02-03-10.2 -4.7-13.2-15.2 61.8- 0.3 2.3---- 0.0------------
1991-02-02-11.1 -6.4-14.8-15.2 66.3- 1.7 3.7---- 0.0------------
1991-02-01-11.4 -7.5-14.9-18.7 60.3- 2.7 4.7---- 0.0------------
1991-01-31 -9.4 -4.3-12.2-16.2 58.0- 0.0 5.7---- 0.0------------
1991-01-30 -2.1 -0.1 -5.1-10.2 76.5- 6.3 1.7---- 0.0------------
1991-01-29 -0.2 1.1 -1.0 -4.8 80.8- 8.0 3.0---- 0.0------------
1991-01-28 0.1 1.6 -0.4 -4.8 81.5- 8.0 3.3---- 0.0------------
1991-01-27 0.9 2.1 -0.3 -4.3 86.3- 7.0 0.0---- 0.0------------
1991-01-26 0.5 1.6 -0.5 -4.3 91.8- 8.0 3.0---- 0.4------------
1991-01-25 0.2 1.6 -0.5 -4.8 86.0- 7.7 2.3---- 0.0------------
1991-01-24 -0.4 1.1 -1.5 -4.5 92.5- 8.0 3.3---- 0.3------------
1991-01-23 0.8 2.2 0.0 -2.3 92.0- 8.0 1.0---- 0.1------------
1991-01-22 1.0 2.1 0.5 -1.8 97.0- 8.0 0.0---- 0.5------------
1991-01-21 -0.1 2.6 -4.1-11.7 78.8- 8.0 1.3---- 0.4------------
1991-01-20 -2.7 3.9 -9.3-12.2 71.8- 2.7 0.0---- 0.0------------
1991-01-19 -3.4 3.7 -7.9-10.2 72.8- 0.0 0.0---- 0.0------------
1991-01-18 -4.4 3.3-10.6-13.7 80.8- 0.0 0.0---- 0.0------------
1991-01-17 -5.5 0.3-10.1-14.2 82.5- 1.3 0.0---- 0.0------------
1991-01-16 -3.3 -0.9 -4.9-10.7 77.0- 0.0 2.0---- 0.0------------
1991-01-15 -4.9 -2.3 -7.9-11.2 85.5- 4.3 1.3---- 0.0------------
1977.5 ms

 

Źródłem pochodzenia danych jest Instytut Meteorologii i Gospodarki Wodnej – Państwowy Instytut Badawczy. Dane Instytutu Meteorologii i Gospodarki Wodnej – Państwowego Instytutu Badawczego zostały przetworzone.

Dane źródłowe można odnaleźć na stronie https://dane.imgw.pl